Time;durP1;ratioP1;P1;durP2;ratioP2;P2;SDS_P1;SDS_P2;PMS_P1;PMS_P2;Temp;Humidity;BMP_temperature;BMP_pressure;BME280_temperature;BME280_humidity;BME280_pressure;Samples;Min_cycle;Max_cycle;Signal;HPM_P1;HPM_P2
2022/03/16 00:02:20;;;;;;;49.00;30.55;;;5.90;99.90;;;;;;4998618;28;20037;-86
2022/03/16 00:04:50;;;;;;;52.40;31.35;;;5.90;99.90;;;;;;4989685;28;20046;-85
2022/03/16 00:07:16;;;;;;;53.08;31.08;;;5.90;99.90;;;;;;4974989;28;20042;-86
2022/03/16 00:09:42;;;;;;;50.75;30.63;;;5.80;99.90;;;;;;4974312;28;20121;-84
2022/03/16 00:12:09;;;;;;;54.22;30.98;;;5.70;99.90;;;;;;4996520;28;20050;-84
2022/03/16 00:14:35;;;;;;;51.08;30.80;;;5.70;99.90;;;;;;4997636;28;20038;-85
2022/03/16 00:17:01;;;;;;;51.63;30.83;;;5.70;99.90;;;;;;4995711;28;20045;-85
2022/03/16 00:19:26;;;;;;;51.63;31.13;;;5.70;99.90;;;;;;4991674;28;20034;-86
2022/03/16 00:21:52;;;;;;;51.22;31.40;;;5.60;99.90;;;;;;4995467;28;21582;-84
2022/03/16 00:24:17;;;;;;;53.38;32.50;;;5.70;99.90;;;;;;4993318;28;20053;-86
2022/03/16 00:26:43;;;;;;;50.58;31.08;;;5.60;99.90;;;;;;4995332;28;20034;-86
2022/03/16 00:29:09;;;;;;;52.80;32.35;;;5.70;99.90;;;;;;4992559;28;20042;-84
2022/03/16 00:31:34;;;;;;;54.45;31.27;;;5.60;99.90;;;;;;4999805;28;20057;-87
2022/03/16 00:34:01;;;;;;;58.30;32.35;;;5.60;99.90;;;;;;5000340;28;21745;-87
2022/03/16 00:36:27;;;;;;;52.92;30.92;;;5.50;99.90;;;;;;4996012;28;20078;-86
2022/03/16 00:38:52;;;;;;;54.15;31.45;;;5.50;99.90;;;;;;4996660;28;20123;-85
2022/03/16 00:41:18;;;;;;;54.78;31.55;;;5.40;99.90;;;;;;5000028;28;20501;-87
2022/03/16 00:43:44;;;;;;;54.55;30.58;;;5.40;99.90;;;;;;4995048;28;20042;-83
2022/03/16 00:46:10;;;;;;;52.13;30.55;;;5.30;99.90;;;;;;5001011;28;20064;-86
2022/03/16 00:48:35;;;;;;;50.25;30.17;;;5.30;99.90;;;;;;5001643;28;20059;-86
2022/03/16 00:51:01;;;;;;;47.97;28.33;;;5.20;99.90;;;;;;5000565;28;20046;-86
2022/03/16 00:53:27;;;;;;;47.53;28.95;;;5.20;99.90;;;;;;4997330;28;20044;-86
2022/03/16 00:55:52;;;;;;;43.13;27.77;;;5.20;99.90;;;;;;4994565;28;20153;-84
2022/03/16 00:58:18;;;;;;;48.03;28.83;;;5.10;99.90;;;;;;4996518;28;20042;-84
2022/03/16 01:00:43;;;;;;;51.05;31.35;;;5.00;99.90;;;;;;4997127;28;20461;-87
2022/03/16 01:03:09;;;;;;;50.10;31.02;;;5.10;99.90;;;;;;4996755;28;20042;-86
2022/03/16 01:05:35;;;;;;;49.30;29.88;;;5.00;99.90;;;;;;4991614;28;20460;-85
2022/03/16 01:08:00;;;;;;;50.35;29.67;;;5.00;99.90;;;;;;4997096;28;20052;-86
2022/03/16 01:10:26;;;;;;;49.38;28.15;;;5.10;99.90;;;;;;4997470;28;20073;-85
2022/03/16 01:12:53;;;;;;;49.42;29.48;;;5.20;99.90;;;;;;4992146;28;20044;-86
2022/03/16 01:15:23;;;;;;;45.97;26.38;;;5.00;99.90;;;;;;4999898;28;20073;-86
2022/03/16 01:17:51;;;;;;;48.05;28.05;;;5.00;99.90;;;;;;4991915;28;20061;-83
2022/03/16 01:20:18;;;;;;;45.97;28.38;;;5.00;99.90;;;;;;4977267;28;20042;-85
2022/03/16 01:22:43;;;;;;;49.13;29.50;;;4.90;99.90;;;;;;4980556;28;20090;-86
2022/03/16 01:25:09;;;;;;;52.47;30.23;;;4.80;99.90;;;;;;4981657;28;20527;-86
2022/03/16 01:27:34;;;;;;;52.65;31.83;;;4.80;99.90;;;;;;4994997;28;20069;-85
2022/03/16 01:30:00;;;;;;;52.15;31.98;;;4.90;99.90;;;;;;4999504;28;20404;-85
2022/03/16 01:32:26;;;;;;;56.28;31.35;;;4.90;99.90;;;;;;4996294;28;20045;-85
2022/03/16 01:34:51;;;;;;;56.30;31.67;;;4.90;99.90;;;;;;4994645;28;20045;-86
2022/03/16 01:37:17;;;;;;;53.40;31.48;;;4.90;99.90;;;;;;4998545;28;21551;-83
2022/03/16 01:39:42;;;;;;;50.42;30.75;;;5.00;99.90;;;;;;4991917;28;20042;-86
2022/03/16 01:42:08;;;;;;;50.00;30.08;;;4.90;99.90;;;;;;4994901;28;20129;-86
2022/03/16 01:44:45;;;;;;;50.25;31.17;;;4.90;99.90;;;;;;4998880;28;20531;-87
2022/03/16 01:47:12;;;;;;;49.88;29.60;;;4.90;99.90;;;;;;5000497;28;20466;-84
2022/03/16 01:49:38;;;;;;;50.75;29.05;;;4.80;99.90;;;;;;4993237;28;20092;-86
2022/03/16 01:52:04;;;;;;;42.65;26.95;;;4.80;99.90;;;;;;4992102;28;20261;-86
2022/03/16 01:54:30;;;;;;;51.00;27.63;;;4.70;99.90;;;;;;4989988;28;21588;-86
2022/03/16 01:56:56;;;;;;;46.80;28.65;;;4.80;99.90;;;;;;4993505;28;20037;-84
2022/03/16 01:59:22;;;;;;;49.65;29.35;;;4.70;99.90;;;;;;4998138;28;20116;-85
2022/03/16 02:01:47;;;;;;;46.90;28.98;;;4.70;99.90;;;;;;4997671;28;20130;-85
2022/03/16 02:04:13;;;;;;;45.97;29.10;;;4.70;99.90;;;;;;4993238;28;20070;-85
2022/03/16 02:06:39;;;;;;;42.65;27.20;;;4.70;99.90;;;;;;4998673;28;20037;-86
2022/03/16 02:09:05;;;;;;;45.53;28.08;;;4.70;99.90;;;;;;4992940;28;20042;-86
2022/03/16 02:11:30;;;;;;;46.80;29.88;;;4.60;99.90;;;;;;4994698;28;20080;-86
2022/03/16 02:13:56;;;;;;;52.00;30.65;;;4.60;99.90;;;;;;4994379;28;20512;-85
2022/03/16 02:16:21;;;;;;;51.10;29.35;;;4.50;99.90;;;;;;5000364;28;20060;-86
2022/03/16 02:18:47;;;;;;;46.38;28.20;;;4.50;99.90;;;;;;5000829;28;20037;-85
2022/03/16 02:21:16;;;;;;;46.90;27.35;;;4.40;99.90;;;;;;4999123;28;20092;-85
2022/03/16 02:23:42;;;;;;;39.97;25.73;;;4.30;99.90;;;;;;5017298;28;20496;-86
2022/03/16 02:26:14;;;;;;;57.08;28.58;;;4.20;99.90;;;;;;5001216;28;20026;-85
2022/03/16 02:28:40;;;;;;;160.13;28.33;;;4.20;99.90;;;;;;4999372;28;20091;-85
2022/03/16 02:31:05;;;;;;;248.63;28.70;;;4.20;99.90;;;;;;4988146;28;20128;-86
2022/03/16 02:33:31;;;;;;;131.80;23.90;;;4.00;99.90;;;;;;5001266;28;20050;-85
2022/03/16 02:35:57;;;;;;;135.68;23.98;;;3.90;99.90;;;;;;4987164;28;20045;-85
2022/03/16 02:38:22;;;;;;;47.25;23.38;;;3.80;99.90;;;;;;4975613;28;20405;-87
2022/03/16 02:40:48;;;;;;;80.57;23.65;;;3.80;99.90;;;;;;4982590;28;20038;-87
2022/03/16 02:43:14;;;;;;;35.70;20.98;;;3.80;99.90;;;;;;4997952;28;20184;-86
2022/03/16 02:45:39;;;;;;;35.85;20.65;;;3.70;99.90;;;;;;4997555;28;20034;-85
2022/03/16 02:48:05;;;;;;;348.98;30.50;;;3.70;99.90;;;;;;4995818;28;21594;-84
2022/03/16 02:50:31;;;;;;;691.03;37.38;;;3.70;99.90;;;;;;5006799;28;20602;-86
2022/03/16 02:52:57;;;;;;;84.18;23.63;;;3.70;99.90;;;;;;4993177;28;20258;-87
2022/03/16 02:55:23;;;;;;;114.30;25.75;;;3.70;99.90;;;;;;4997335;28;20361;-86
2022/03/16 02:57:49;;;;;;;148.13;26.70;;;3.80;99.90;;;;;;4997933;28;20057;-87
2022/03/16 03:00:15;;;;;;;268.38;29.13;;;3.90;99.90;;;;;;5000672;28;20136;-86
2022/03/16 03:02:41;;;;;;;673.72;39.28;;;3.70;99.90;;;;;;5000997;28;20184;-87
2022/03/16 03:05:07;;;;;;;739.22;37.65;;;3.80;99.90;;;;;;5002632;28;20117;-86
2022/03/16 03:07:33;;;;;;;889.72;39.03;;;3.80;99.90;;;;;;4996293;28;20046;-86
2022/03/16 03:09:59;;;;;;;883.90;37.58;;;3.90;99.90;;;;;;4992450;28;20088;-87
2022/03/16 03:12:24;;;;;;;723.13;34.38;;;3.90;99.90;;;;;;4999556;28;20048;-86
2022/03/16 03:14:50;;;;;;;768.03;36.88;;;3.90;99.90;;;;;;4996330;28;20046;-86
2022/03/16 03:17:15;;;;;;;529.45;30.48;;;3.80;99.90;;;;;;4995854;28;20129;-86
2022/03/16 03:19:43;;;;;;;818.42;35.35;;;3.80;99.90;;;;;;4996708;28;20042;-86
2022/03/16 03:22:09;;;;;;;519.88;28.02;;;3.70;99.90;;;;;;5001499;28;20133;-86
2022/03/16 03:24:35;;;;;;;378.10;25.17;;;3.70;99.90;;;;;;4997652;28;20056;-86
2022/03/16 03:27:00;;;;;;;389.02;25.77;;;3.70;99.90;;;;;;5000022;28;20046;-85
2022/03/16 03:29:26;;;;;;;352.67;23.90;;;3.80;99.90;;;;;;4997305;28;20534;-86
2022/03/16 03:31:51;;;;;;;408.77;25.00;;;3.80;99.90;;;;;;5001902;28;20042;-86
2022/03/16 03:34:17;;;;;;;399.40;25.63;;;3.60;99.90;;;;;;4999119;28;20130;-86
2022/03/16 03:36:43;;;;;;;366.63;24.65;;;3.80;99.90;;;;;;5001186;28;20404;-85
2022/03/16 03:39:08;;;;;;;723.17;33.85;;;3.60;99.90;;;;;;4998343;28;20042;-86
2022/03/16 03:41:34;;;;;;;295.33;23.35;;;3.40;99.90;;;;;;4997574;28;20046;-86
2022/03/16 03:43:59;;;;;;;226.00;22.48;;;3.40;99.90;;;;;;4996222;28;20050;-86
2022/03/16 03:46:25;;;;;;;268.70;21.60;;;3.30;99.90;;;;;;4998606;28;20124;-84
2022/03/16 03:48:51;;;;;;;85.18;19.30;;;3.30;99.90;;;;;;4995985;28;20038;-86
2022/03/16 03:51:16;;;;;;;44.47;16.92;;;3.50;99.90;;;;;;4979157;28;20038;-86
2022/03/16 03:53:42;;;;;;;169.57;21.58;;;3.30;99.90;;;;;;4981739;28;20116;-86
2022/03/16 03:56:07;;;;;;;242.20;21.95;;;3.20;99.90;;;;;;4995154;28;20060;-85
2022/03/16 03:58:34;;;;;;;116.75;19.13;;;3.20;99.90;;;;;;5002741;28;20041;-86
2022/03/16 04:00:59;;;;;;;191.80;21.23;;;3.10;99.90;;;;;;4999841;28;20061;-85
2022/03/16 04:03:25;;;;;;;247.95;23.55;;;3.00;99.90;;;;;;4998291;28;20511;-87
2022/03/16 04:05:51;;;;;;;235.65;21.10;;;3.20;99.90;;;;;;4999834;28;20475;-84
2022/03/16 04:08:16;;;;;;;243.57;22.63;;;3.00;99.90;;;;;;4996235;28;20049;-85
2022/03/16 04:10:42;;;;;;;214.35;22.00;;;2.90;99.90;;;;;;4996007;28;20037;-85
2022/03/16 04:13:07;;;;;;;210.20;22.48;;;2.90;99.90;;;;;;4994488;28;20037;-85
2022/03/16 04:15:33;;;;;;;96.70;20.63;;;2.90;99.90;;;;;;4996031;28;20070;-86
2022/03/16 04:17:59;;;;;;;79.50;19.05;;;2.80;99.90;;;;;;4992324;28;20069;-86
2022/03/16 04:20:25;;;;;;;41.15;19.17;;;3.00;99.90;;;;;;4993211;28;20097;-85
2022/03/16 04:22:51;;;;;;;55.35;21.45;;;2.70;99.90;;;;;;4993424;28;20444;-85
2022/03/16 04:25:16;;;;;;;53.55;21.58;;;2.80;99.90;;;;;;4993186;28;20036;-84
2022/03/16 04:27:42;;;;;;;133.38;24.55;;;2.80;99.90;;;;;;4998033;28;20053;-85
2022/03/16 04:30:08;;;;;;;112.60;23.25;;;2.90;99.90;;;;;;4993130;28;20048;-86
2022/03/16 04:32:34;;;;;;;218.02;24.92;;;2.90;99.90;;;;;;4995267;28;20038;-86
2022/03/16 04:34:59;;;;;;;115.55;21.85;;;3.00;99.90;;;;;;4996610;28;20057;-86
2022/03/16 04:37:25;;;;;;;156.85;24.95;;;2.90;99.90;;;;;;4997468;28;20400;-85
2022/03/16 04:39:50;;;;;;;39.28;22.50;;;2.90;99.90;;;;;;4996939;28;20677;-86
2022/03/16 04:42:16;;;;;;;47.67;22.60;;;3.00;99.90;;;;;;4999922;28;20444;-86
2022/03/16 04:44:42;;;;;;;83.88;21.25;;;3.00;99.90;;;;;;4999976;28;20033;-84
2022/03/16 04:47:07;;;;;;;45.90;21.33;;;2.90;99.90;;;;;;4995679;28;21713;-86
2022/03/16 04:49:33;;;;;;;32.80;17.85;;;2.80;99.90;;;;;;4993383;28;20038;-84
2022/03/16 04:51:59;;;;;;;27.70;17.88;;;2.80;99.90;;;;;;4989199;28;20085;-86
2022/03/16 04:54:24;;;;;;;145.80;22.20;;;2.70;99.90;;;;;;5011755;28;20080;-85
2022/03/16 04:56:50;;;;;;;58.08;21.92;;;2.70;99.90;;;;;;4997053;28;20042;-85
2022/03/16 04:59:17;;;;;;;81.05;22.17;;;3.00;99.90;;;;;;4998389;28;20065;-84
2022/03/16 05:01:42;;;;;;;116.35;23.80;;;3.00;99.90;;;;;;4992778;28;20046;-86
2022/03/16 05:04:08;;;;;;;102.07;24.55;;;3.00;99.90;;;;;;5000082;28;20030;-86
2022/03/16 05:06:33;;;;;;;165.20;24.92;;;3.00;99.90;;;;;;4984195;28;20124;-84
2022/03/16 05:08:59;;;;;;;112.30;24.75;;;3.10;99.90;;;;;;4972535;28;20065;-86
2022/03/16 05:11:24;;;;;;;131.02;23.67;;;3.20;99.90;;;;;;4984060;28;20140;-85
2022/03/16 05:13:50;;;;;;;80.18;24.10;;;3.20;99.90;;;;;;4996492;28;20109;-85
2022/03/16 05:16:16;;;;;;;240.13;25.60;;;3.30;99.90;;;;;;4990904;28;20042;-85
2022/03/16 05:18:44;;;;;;;89.95;23.25;;;3.30;99.90;;;;;;4994646;28;20535;-85
2022/03/16 05:21:09;;;;;;;116.25;23.63;;;3.40;99.90;;;;;;4995177;28;20069;-85
2022/03/16 05:23:36;;;;;;;174.68;24.63;;;3.40;99.90;;;;;;4980849;28;20070;-85
2022/03/16 05:26:03;;;;;;;135.95;23.33;;;3.20;99.90;;;;;;4991904;28;20074;-85
2022/03/16 05:28:28;;;;;;;207.80;24.40;;;3.20;99.90;;;;;;5000474;28;20120;-83
2022/03/16 05:30:54;;;;;;;134.88;23.58;;;3.50;99.90;;;;;;4993020;28;20496;-85
2022/03/16 05:33:19;;;;;;;138.25;24.65;;;3.20;99.90;;;;;;4997316;28;20030;-84
2022/03/16 05:35:45;;;;;;;88.05;23.02;;;3.30;99.90;;;;;;4991139;28;20038;-86
2022/03/16 05:38:13;;;;;;;139.10;23.95;;;3.20;99.90;;;;;;5000352;28;20563;-83
2022/03/16 05:40:40;;;;;;;134.52;24.77;;;3.30;99.90;;;;;;5000619;28;20042;-84
2022/03/16 05:43:06;;;;;;;113.18;24.40;;;3.40;99.90;;;;;;4995607;28;20033;-85
2022/03/16 05:45:32;;;;;;;115.38;25.17;;;3.30;99.90;;;;;;4996904;28;20381;-85
2022/03/16 05:47:58;;;;;;;89.32;24.60;;;3.30;99.90;;;;;;4995109;28;20046;-85
2022/03/16 05:50:28;;;;;;;88.38;23.55;;;3.40;99.90;;;;;;4999193;28;20041;-85
2022/03/16 05:52:54;;;;;;;111.60;25.45;;;3.30;99.90;;;;;;5009396;28;20057;-86
2022/03/16 05:55:20;;;;;;;62.47;24.48;;;3.40;99.90;;;;;;5011981;28;20403;-85
2022/03/16 05:57:45;;;;;;;94.40;25.23;;;3.30;99.90;;;;;;5010139;28;20033;-85
2022/03/16 06:00:14;;;;;;;86.50;24.80;;;3.40;99.90;;;;;;4994233;28;20044;-83
2022/03/16 06:02:41;;;;;;;63.67;24.25;;;3.40;99.90;;;;;;4998593;28;20034;-85
2022/03/16 06:05:08;;;;;;;52.00;25.50;;;3.40;99.90;;;;;;4995338;28;20089;-85
2022/03/16 06:07:33;;;;;;;48.50;25.23;;;3.40;99.90;;;;;;4994355;28;20046;-86
2022/03/16 06:09:59;;;;;;;51.58;25.45;;;3.40;99.90;;;;;;4994735;28;20046;-85
2022/03/16 06:12:25;;;;;;;57.67;26.20;;;3.50;99.90;;;;;;5004347;28;20056;-85
2022/03/16 06:14:51;;;;;;;45.40;25.15;;;3.60;99.90;;;;;;5007264;28;20415;-86
2022/03/16 06:17:16;;;;;;;41.47;26.38;;;3.60;99.90;;;;;;5000121;28;20377;-86
2022/03/16 06:19:42;;;;;;;40.95;26.88;;;3.60;99.90;;;;;;5013264;28;20038;-84
2022/03/16 06:22:07;;;;;;;40.95;25.98;;;3.60;99.90;;;;;;5009499;28;20046;-85
2022/03/16 06:24:33;;;;;;;42.15;26.27;;;3.90;99.90;;;;;;5007812;28;20039;-85
2022/03/16 06:26:59;;;;;;;40.17;25.77;;;3.70;99.90;;;;;;4995858;28;20034;-85
2022/03/16 06:29:24;;;;;;;39.78;25.38;;;3.70;99.90;;;;;;5003521;28;20136;-84
2022/03/16 06:31:50;;;;;;;42.28;26.88;;;3.70;99.90;;;;;;4995200;28;20421;-85
2022/03/16 06:34:15;;;;;;;39.83;25.77;;;3.80;99.90;;;;;;5003781;28;20078;-85
2022/03/16 06:36:41;;;;;;;37.97;24.75;;;3.90;99.90;;;;;;5001885;28;20500;-85
2022/03/16 06:39:06;;;;;;;40.72;26.65;;;4.10;99.90;;;;;;4994097;28;20042;-84
2022/03/16 06:41:32;;;;;;;39.55;26.30;;;3.90;99.90;;;;;;4994535;28;20038;-86
2022/03/16 06:43:57;;;;;;;42.58;26.85;;;4.00;99.90;;;;;;5002347;28;20038;-85
2022/03/16 06:46:23;;;;;;;49.67;29.15;;;4.10;99.90;;;;;;4998506;28;20038;-85
2022/03/16 06:48:48;;;;;;;44.63;27.85;;;4.10;99.90;;;;;;4993571;28;20101;-85
2022/03/16 06:51:14;;;;;;;43.97;28.77;;;4.10;99.90;;;;;;4995070;28;20073;-85
2022/03/16 06:53:39;;;;;;;48.38;28.75;;;4.20;99.90;;;;;;5007598;28;20491;-85
2022/03/16 06:56:05;;;;;;;45.78;28.65;;;4.20;99.90;;;;;;5011481;28;20149;-84
2022/03/16 06:58:31;;;;;;;47.35;29.35;;;4.30;99.90;;;;;;4997419;28;20042;-85
2022/03/16 07:00:57;;;;;;;49.90;29.27;;;4.30;99.90;;;;;;4996761;28;20050;-85
2022/03/16 07:03:23;;;;;;;49.97;29.15;;;4.40;99.90;;;;;;4993693;28;20039;-85
2022/03/16 07:05:49;;;;;;;47.28;29.42;;;4.30;99.90;;;;;;4994373;28;20088;-86
2022/03/16 07:08:15;;;;;;;46.03;29.63;;;4.40;99.90;;;;;;4997938;28;20046;-85
2022/03/16 07:10:43;;;;;;;46.22;28.13;;;4.50;99.90;;;;;;4997278;28;20098;-86
2022/03/16 07:13:11;;;;;;;46.90;28.90;;;4.60;99.90;;;;;;5004078;28;20053;-86
2022/03/16 07:15:41;;;;;;;45.08;28.80;;;4.60;99.90;;;;;;4997676;28;20035;-86
2022/03/16 07:18:07;;;;;;;49.20;29.70;;;4.60;99.90;;;;;;4994434;28;20053;-87
2022/03/16 07:20:33;;;;;;;50.03;29.63;;;4.60;99.90;;;;;;4997324;28;20061;-85
2022/03/16 07:23:03;;;;;;;51.85;29.95;;;4.60;99.90;;;;;;4994967;28;20505;-86
2022/03/16 07:25:28;;;;;;;52.35;29.67;;;4.70;99.90;;;;;;4994649;28;20045;-86
2022/03/16 07:27:54;;;;;;;49.10;29.90;;;4.80;99.90;;;;;;4994345;28;20042;-84
2022/03/16 07:30:20;;;;;;;49.67;29.60;;;4.80;99.90;;;;;;5006640;28;20044;-87
2022/03/16 07:32:46;;;;;;;50.38;31.27;;;4.90;99.90;;;;;;5009967;28;20038;-86
2022/03/16 07:35:11;;;;;;;50.05;30.83;;;5.00;99.90;;;;;;5008661;28;20038;-87
2022/03/16 07:37:38;;;;;;;55.53;32.13;;;5.00;99.90;;;;;;5006578;28;20038;-87
2022/03/16 07:40:05;;;;;;;49.05;30.05;;;5.10;99.90;;;;;;4995810;28;20108;-86
2022/03/16 07:42:30;;;;;;;49.53;30.25;;;5.20;99.90;;;;;;4993642;28;20104;-87
2022/03/16 07:44:59;;;;;;;53.50;30.77;;;5.20;99.90;;;;;;5001110;28;20030;-86
2022/03/16 07:47:25;;;;;;;51.00;30.80;;;5.30;99.90;;;;;;4996777;28;20044;-86
2022/03/16 07:49:52;;;;;;;51.28;30.77;;;5.40;99.90;;;;;;4999554;28;20093;-85
2022/03/16 07:52:20;;;;;;;50.05;30.60;;;5.40;99.90;;;;;;4992928;28;20054;-86
2022/03/16 07:54:45;;;;;;;51.58;31.27;;;5.40;99.90;;;;;;4990415;28;20050;-86
2022/03/16 07:57:11;;;;;;;46.70;29.52;;;5.50;99.90;;;;;;4996809;28;20026;-87
2022/03/16 07:59:37;;;;;;;50.20;31.35;;;5.60;99.90;;;;;;4992419;28;20046;-87
2022/03/16 08:02:02;;;;;;;46.83;30.38;;;5.80;99.90;;;;;;4993965;28;20038;-86
2022/03/16 08:04:28;;;;;;;50.78;30.17;;;5.70;99.90;;;;;;4978912;28;20557;-86
2022/03/16 08:06:53;;;;;;;48.22;30.60;;;5.80;99.90;;;;;;4987169;28;20077;-85
2022/03/16 08:09:19;;;;;;;47.20;30.70;;;5.90;99.90;;;;;;4985210;28;20038;-88
2022/03/16 08:11:44;;;;;;;49.15;31.80;;;5.90;99.90;;;;;;4973399;28;20411;-86
2022/03/16 08:14:11;;;;;;;48.35;30.25;;;6.00;99.90;;;;;;4984257;28;20046;-86
2022/03/16 08:16:38;;;;;;;47.97;29.83;;;6.10;99.90;;;;;;5001988;28;20049;-86
2022/03/16 08:19:03;;;;;;;48.70;31.55;;;6.20;99.90;;;;;;4982720;28;20128;-86
2022/03/16 08:21:29;;;;;;;51.45;31.38;;;6.30;99.90;;;;;;4991835;28;20165;-86
2022/03/16 08:23:54;;;;;;;47.70;31.80;;;6.40;99.90;;;;;;4993435;28;20038;-84
2022/03/16 08:26:24;;;;;;;47.25;31.42;;;6.40;99.90;;;;;;4994868;28;20076;-84
2022/03/16 08:28:51;;;;;;;48.83;31.33;;;6.60;99.90;;;;;;4993518;28;20042;-86
2022/03/16 08:31:17;;;;;;;49.13;31.45;;;6.70;99.90;;;;;;4990872;28;20568;-85
2022/03/16 08:33:43;;;;;;;49.35;32.13;;;6.80;99.90;;;;;;4992579;28;20046;-85
2022/03/16 08:36:09;;;;;;;51.72;31.83;;;7.00;99.90;;;;;;4999385;28;20089;-86
2022/03/16 08:38:38;;;;;;;51.13;33.45;;;7.20;99.90;;;;;;5004632;28;20046;-86
2022/03/16 08:41:06;;;;;;;47.38;32.60;;;7.30;99.90;;;;;;4992090;28;20454;-86
2022/03/16 08:43:32;;;;;;;46.83;30.38;;;7.50;99.90;;;;;;5002838;28;20073;-86
2022/03/16 08:45:59;;;;;;;47.08;30.88;;;7.60;99.90;;;;;;4997903;28;20052;-86
2022/03/16 08:48:25;;;;;;;46.95;31.33;;;7.70;99.90;;;;;;4999955;28;20048;-87
2022/03/16 08:50:51;;;;;;;47.38;30.67;;;7.80;99.90;;;;;;5003334;28;20092;-87
2022/03/16 08:53:17;;;;;;;43.85;30.38;;;7.90;99.90;;;;;;4997450;28;20054;-86
2022/03/16 08:55:42;;;;;;;44.45;29.38;;;8.00;99.90;;;;;;4994020;28;20046;-85
2022/03/16 08:58:08;;;;;;;43.47;29.88;;;8.20;99.90;;;;;;4983713;28;20041;-86
2022/03/16 09:00:34;;;;;;;43.40;29.73;;;8.30;99.90;;;;;;4979834;28;20065;-86
2022/03/16 09:02:59;;;;;;;46.97;28.77;;;8.40;99.90;;;;;;4997690;28;20124;-86
2022/03/16 09:05:26;;;;;;;42.65;28.83;;;8.50;99.90;;;;;;5008336;28;20045;-86
2022/03/16 09:07:51;;;;;;;39.83;27.30;;;8.60;99.90;;;;;;5008489;28;20354;-85
2022/03/16 09:10:17;;;;;;;41.38;27.10;;;8.80;99.90;;;;;;5006740;28;20045;-86
2022/03/16 09:12:43;;;;;;;43.63;27.98;;;9.00;99.90;;;;;;4994942;28;20042;-86
2022/03/16 09:15:09;;;;;;;40.13;27.95;;;9.10;99.90;;;;;;4993085;28;20045;-86
2022/03/16 09:17:35;;;;;;;39.65;26.65;;;9.30;99.90;;;;;;4992453;28;20053;-85
2022/03/16 09:20:04;;;;;;;43.80;28.63;;;9.30;99.90;;;;;;5007229;28;20504;-86
2022/03/16 09:22:30;;;;;;;41.35;28.55;;;9.50;99.90;;;;;;5007069;28;20037;-85
2022/03/16 09:24:56;;;;;;;40.78;28.05;;;9.50;99.90;;;;;;4991396;28;20039;-85
2022/03/16 09:27:22;;;;;;;39.72;25.48;;;9.60;99.90;;;;;;4994588;28;20034;-86
2022/03/16 09:29:48;;;;;;;44.10;27.95;;;9.60;99.90;;;;;;4995298;28;20089;-84
2022/03/16 09:32:14;;;;;;;44.40;28.98;;;9.60;99.90;;;;;;5003466;28;20041;-84
2022/03/16 09:34:40;;;;;;;45.35;27.33;;;9.70;99.90;;;;;;4995453;28;20042;-86
2022/03/16 09:37:07;;;;;;;45.53;27.75;;;9.80;99.90;;;;;;4996870;28;20426;-86
2022/03/16 09:39:34;;;;;;;44.25;27.67;;;10.00;99.90;;;;;;5006840;28;20046;-85
2022/03/16 09:42:00;;;;;;;40.25;27.00;;;10.20;99.90;;;;;;4998524;28;20046;-85
2022/03/16 09:44:28;;;;;;;40.47;26.33;;;10.30;99.90;;;;;;5003581;28;20050;-85
2022/03/16 09:46:56;;;;;;;39.75;25.90;;;10.50;99.90;;;;;;5001273;28;20043;-85
2022/03/16 09:49:23;;;;;;;34.67;23.00;;;10.70;99.90;;;;;;4990384;28;20226;-85
2022/03/16 09:51:50;;;;;;;34.80;23.30;;;10.80;99.90;;;;;;4994776;28;20033;-85
2022/03/16 09:54:15;;;;;;;32.55;20.92;;;10.90;99.90;;;;;;5007871;28;20499;-86
2022/03/16 09:56:43;;;;;;;32.83;20.58;;;10.90;99.90;;;;;;5002819;28;20084;-84
2022/03/16 09:59:10;;;;;;;29.58;20.42;;;10.90;99.90;;;;;;4996549;28;20057;-85
2022/03/16 10:01:35;;;;;;;30.25;21.05;;;11.10;99.90;;;;;;4991081;28;20117;-83
2022/03/16 10:04:03;;;;;;;28.35;19.20;;;11.20;99.90;;;;;;5001577;28;20198;-84
2022/03/16 10:06:29;;;;;;;29.02;19.05;;;11.30;99.90;;;;;;5001762;28;20042;-85
2022/03/16 10:14:24;;;;;;;;;;;11.40;99.90;;;;;;4991417;28;20042;-85
2022/03/16 10:19:52;;;;;;;25.38;15.65;;;11.50;99.90;;;;;;4993016;28;20128;-85
2022/03/16 10:22:26;;;;;;;22.50;15.13;;;11.70;99.90;;;;;;4997068;28;20125;-85
2022/03/16 10:25:02;;;;;;;22.88;16.77;;;11.80;99.90;;;;;;4997912;28;20039;-85
2022/03/16 10:27:28;;;;;;;21.85;15.65;;;11.90;99.90;;;;;;4989703;28;20411;-84
2022/03/16 10:29:54;;;;;;;19.63;13.25;;;12.00;99.90;;;;;;4995939;28;20301;-84
2022/03/16 10:32:23;;;;;;;20.30;13.80;;;12.10;99.90;;;;;;4993630;28;20053;-85
2022/03/16 10:34:53;;;;;;;18.40;13.27;;;12.10;99.90;;;;;;5002382;28;20043;-84
2022/03/16 10:37:20;;;;;;;19.48;13.30;;;12.20;99.90;;;;;;4992225;28;20510;-83
2022/03/16 10:39:51;;;;;;;17.95;12.63;;;12.20;99.90;;;;;;4994939;28;20034;-83
2022/03/16 10:47:59;;;;;;;14.90;11.02;;;12.70;99.90;;;;;;4993818;28;20046;-83
2022/03/16 10:50:25;;;;;;;16.23;11.15;;;12.60;99.90;;;;;;5005805;28;20045;-85
2022/03/16 10:52:52;;;;;;;13.32;9.93;;;12.60;99.90;;;;;;4997221;28;20050;-82
2022/03/16 10:55:19;;;;;;;14.00;10.13;;;12.50;99.90;;;;;;4995852;28;20080;-84
2022/03/16 10:57:49;;;;;;;14.93;10.23;;;12.60;99.90;;;;;;4999722;28;20073;-83
2022/03/16 11:00:16;;;;;;;16.00;10.40;;;12.70;99.90;;;;;;4989557;28;20046;-85
2022/03/16 11:02:45;;;;;;;17.08;11.73;;;12.90;99.90;;;;;;4985391;28;20134;-84
2022/03/16 11:05:11;;;;;;;14.20;10.75;;;13.00;99.90;;;;;;4974465;28;20051;-84
2022/03/16 11:07:38;;;;;;;17.15;11.02;;;13.10;99.90;;;;;;4979003;28;20046;-85
2022/03/16 11:10:04;;;;;;;15.27;11.10;;;13.30;99.90;;;;;;4974676;28;20408;-84
2022/03/16 11:15:18;;;;;;;15.07;11.07;;;13.50;99.90;;;;;;4981586;28;20102;-82
2022/03/16 11:17:45;;;;;;;15.93;11.05;;;13.50;99.90;;;;;;4980855;28;20537;-85
2022/03/16 11:20:11;;;;;;;16.92;10.98;;;13.50;99.90;;;;;;5009358;28;20080;-84
2022/03/16 11:26:14;;;;;;;17.70;11.77;;;13.50;99.90;;;;;;5008949;28;20038;-85
2022/03/16 11:29:21;;;;;;;16.60;11.82;;;13.70;99.90;;;;;;5006294;28;20048;-84
2022/03/16 11:31:48;;;;;;;21.38;12.73;;;13.70;99.90;;;;;;4998891;28;20128;-83
2022/03/16 11:34:21;;;;;;;18.20;12.15;;;13.70;99.90;;;;;;5006684;28;20065;-83
2022/03/16 11:37:02;;;;;;;17.83;13.05;;;13.90;99.90;;;;;;4991833;28;20505;-83
2022/03/16 11:39:45;;;;;;;17.02;12.68;;;14.10;99.90;;;;;;5006418;28;20037;-83
2022/03/16 11:42:15;;;;;;;16.67;10.77;;;14.20;99.90;;;;;;5007424;28;20037;-84
2022/03/16 11:44:41;;;;;;;17.73;11.50;;;14.30;99.90;;;;;;5011312;28;20041;-84
2022/03/16 11:47:09;;;;;;;15.63;10.70;;;14.30;99.90;;;;;;5003910;28;20038;-83
2022/03/16 11:49:42;;;;;;;16.70;10.77;;;14.50;99.90;;;;;;4998467;28;20030;-83
2022/03/16 11:52:08;;;;;;;18.60;11.73;;;14.50;99.90;;;;;;5000430;28;20463;-86
2022/03/16 11:54:48;;;;;;;15.07;11.30;;;14.60;99.90;;;;;;5008603;28;20476;-84
2022/03/16 11:57:52;;;;;;;14.35;9.82;;;14.70;99.90;;;;;;4995363;28;20053;-86
2022/03/16 12:00:21;;;;;;;14.20;10.48;;;14.80;99.90;;;;;;4998186;28;20103;-85
2022/03/16 12:02:59;;;;;;;16.15;11.00;;;14.80;99.90;;;;;;4996511;28;20046;-84
2022/03/16 12:05:27;;;;;;;16.75;10.45;;;14.90;99.90;;;;;;5004284;28;20042;-84
2022/03/16 12:08:12;;;;;;;14.35;9.90;;;15.10;99.90;;;;;;4997375;28;20090;-85
2022/03/16 12:10:47;;;;;;;14.80;10.15;;;15.10;99.90;;;;;;4993490;28;20073;-82
2022/03/16 12:13:15;;;;;;;15.88;10.35;;;15.20;99.90;;;;;;4999743;28;20050;-85
2022/03/16 12:15:42;;;;;;;17.10;10.93;;;15.30;99.90;;;;;;5005955;28;20049;-84
2022/03/16 12:18:14;;;;;;;16.10;10.98;;;15.40;99.90;;;;;;5000418;28;20116;-84
2022/03/16 12:20:56;;;;;;;16.00;10.18;;;15.50;99.90;;;;;;5008955;28;20492;-84
2022/03/16 12:23:47;;;;;;;15.70;10.20;;;15.60;99.90;;;;;;4997154;28;20058;-83
2022/03/16 12:26:14;;;;;;;13.52;10.15;;;15.70;99.90;;;;;;5003293;28;20034;-83
2022/03/16 12:28:56;;;;;;;17.00;10.68;;;15.70;99.90;;;;;;5003647;28;20042;-84
2022/03/16 12:31:21;;;;;;;14.45;10.82;;;15.90;99.90;;;;;;5007907;28;20125;-84
2022/03/16 12:33:57;;;;;;;17.63;11.25;;;16.00;99.90;;;;;;5002913;28;20117;-85
2022/03/16 12:36:31;;;;;;;16.15;11.25;;;16.10;99.20;;;;;;4992291;28;20117;-84
2022/03/16 12:39:00;;;;;;;16.80;10.88;;;16.10;99.90;;;;;;5001214;28;20515;-83
2022/03/16 12:44:15;;;;;;;15.88;10.65;;;16.20;99.80;;;;;;4997490;28;20045;-85
2022/03/16 12:47:05;;;;;;;14.82;10.88;;;16.20;99.90;;;;;;4994116;28;20079;-83
2022/03/16 12:49:32;;;;;;;16.95;11.63;;;16.20;99.70;;;;;;4993045;28;20121;-83
2022/03/16 12:52:00;;;;;;;16.58;11.30;;;16.20;99.90;;;;;;4991738;28;20046;-84
2022/03/16 12:54:29;;;;;;;15.85;11.05;;;16.40;99.90;;;;;;5003103;28;20089;-83
2022/03/16 12:57:01;;;;;;;17.08;11.23;;;16.50;99.70;;;;;;5001753;28;20029;-84